createdAt,value
2017-09-01T00:02:17.612Z,12.20
2017-09-01T00:04:45.115Z,13.90
2017-09-01T00:07:13.439Z,15.13
2017-09-01T00:09:40.954Z,12.87
2017-09-01T00:12:08.468Z,13.20
2017-09-01T00:14:36.111Z,14.63
2017-09-01T00:17:04.380Z,14.97
2017-09-01T00:19:31.963Z,16.80
2017-09-01T00:21:59.615Z,19.87
2017-09-01T00:24:27.225Z,18.20
2017-09-01T00:26:54.747Z,17.40
2017-09-01T00:29:22.440Z,18.97
2017-09-01T00:31:50.003Z,17.60
2017-09-01T00:34:17.578Z,17.37
2017-09-01T00:36:45.440Z,17.10
2017-09-01T00:39:12.951Z,17.30
2017-09-01T00:41:40.462Z,17.63
2017-09-01T00:44:08.015Z,18.80
2017-09-01T00:46:35.518Z,18.87
2017-09-01T00:49:03.029Z,16.87
2017-09-01T00:51:30.587Z,16.47
2017-09-01T00:53:58.094Z,13.33
2017-09-01T00:56:25.595Z,14.43
2017-09-01T00:58:53.149Z,15.33
2017-09-01T01:01:20.651Z,19.40
2017-09-01T01:03:48.163Z,16.50
2017-09-01T01:06:16.018Z,17.00
2017-09-01T01:08:43.523Z,14.73
2017-09-01T01:11:11.028Z,14.40
2017-09-01T01:13:38.583Z,15.70
2017-09-01T01:16:06.098Z,14.87
2017-09-01T01:18:34.372Z,17.30
2017-09-01T01:21:01.937Z,15.57
2017-09-01T01:23:29.446Z,18.20
2017-09-01T01:25:57.075Z,15.93
2017-09-01T01:28:24.631Z,17.27
2017-09-01T01:30:52.136Z,16.67
2017-09-01T01:33:19.652Z,17.80
2017-09-01T01:35:47.422Z,17.50
2017-09-01T01:38:14.936Z,18.23
2017-09-01T01:40:42.446Z,17.70
2017-09-01T01:43:10.346Z,18.33
2017-09-01T01:45:37.850Z,19.60
2017-09-01T01:48:05.362Z,18.30
2017-09-01T01:50:32.931Z,15.90
2017-09-01T01:53:00.435Z,16.67
2017-09-01T01:55:27.944Z,19.80
2017-09-01T01:57:55.505Z,19.00
2017-09-01T02:00:23.009Z,16.57
2017-09-01T02:02:50.511Z,14.07
2017-09-01T02:05:18.323Z,19.07
2017-09-01T02:07:46.592Z,16.50
2017-09-01T02:10:14.134Z,15.70
2017-09-01T02:12:41.718Z,14.70
2017-09-01T02:15:09.250Z,12.30
2017-09-01T02:17:36.838Z,13.30
2017-09-01T02:20:04.410Z,10.33
2017-09-01T02:22:31.926Z,9.90
2017-09-01T02:24:59.431Z,10.87
2017-09-01T02:27:26.989Z,11.20
2017-09-01T02:29:54.512Z,14.10
2017-09-01T02:32:22.018Z,12.30
2017-09-01T02:34:49.576Z,11.37
2017-09-01T02:37:17.083Z,13.10
2017-09-01T02:39:44.586Z,14.33
2017-09-01T02:42:12.127Z,14.77
2017-09-01T02:44:39.640Z,13.13
2017-09-01T02:47:07.138Z,14.53
2017-09-01T02:49:34.687Z,13.80
2017-09-01T02:52:02.200Z,14.17
2017-09-01T02:54:29.703Z,11.70
2017-09-01T02:56:57.255Z,12.27
2017-09-01T02:59:24.769Z,11.40
2017-09-01T03:01:52.271Z,12.17
2017-09-01T03:04:19.827Z,12.73
2017-09-01T03:06:47.388Z,13.23
2017-09-01T03:09:14.895Z,12.67
2017-09-01T03:11:42.794Z,12.60
2017-09-01T03:14:10.432Z,13.73
2017-09-01T03:16:38.132Z,10.00
2017-09-01T03:19:05.947Z,9.80
2017-09-01T03:21:33.451Z,10.10
2017-09-01T03:24:00.962Z,10.13
2017-09-01T03:26:28.520Z,10.80
2017-09-01T03:28:56.993Z,8.67
2017-09-01T03:31:24.639Z,9.37
2017-09-01T03:33:52.186Z,9.83
2017-09-01T03:36:19.683Z,10.60
2017-09-01T03:38:47.441Z,8.03
2017-09-01T03:41:15.384Z,8.17
2017-09-01T03:43:42.882Z,7.80
2017-09-01T03:46:10.385Z,7.17
2017-09-01T03:48:38.179Z,7.50
2017-09-01T03:51:05.684Z,7.23
2017-09-01T03:53:33.188Z,8.33
2017-09-01T03:56:00.750Z,7.20
2017-09-01T03:58:28.267Z,9.10
2017-09-01T04:00:55.767Z,8.60
2017-09-01T04:03:23.310Z,8.10
2017-09-01T04:05:50.819Z,9.30
2017-09-01T04:08:18.335Z,11.27
2017-09-01T04:10:46.150Z,10.00
2017-09-01T04:13:13.660Z,10.50
2017-09-01T04:15:41.162Z,11.43
2017-09-01T04:18:09.051Z,9.60
2017-09-01T04:20:36.551Z,13.57
2017-09-01T04:23:04.055Z,11.20
2017-09-01T04:25:31.607Z,12.40
2017-09-01T04:27:59.110Z,11.77
2017-09-01T04:30:26.619Z,12.53
2017-09-01T04:32:54.403Z,12.37
2017-09-01T04:35:21.911Z,13.80
2017-09-01T04:37:49.411Z,12.63
2017-09-01T04:40:17.203Z,13.17
2017-09-01T04:42:44.703Z,13.63
2017-09-01T04:45:12.198Z,14.27
2017-09-01T04:47:39.755Z,14.80
2017-09-01T04:50:07.272Z,15.80
2017-09-01T04:52:34.785Z,16.30
2017-09-01T04:55:02.358Z,15.53
2017-09-01T04:57:29.875Z,16.87
2017-09-01T04:59:57.375Z,17.20
2017-09-01T05:02:24.934Z,17.90
2017-09-01T05:04:52.446Z,15.13
2017-09-01T05:07:19.957Z,14.60
2017-09-01T05:09:47.779Z,13.50
2017-09-01T05:12:15.278Z,9.93
2017-09-01T05:14:42.779Z,11.00
2017-09-01T05:17:10.359Z,10.10
2017-09-01T05:19:37.870Z,10.00
2017-09-01T05:22:05.387Z,11.60
2017-09-01T05:24:32.943Z,8.37
2017-09-01T05:27:00.459Z,10.83
2017-09-01T05:29:27.983Z,12.37
2017-09-01T05:31:55.859Z,12.90
2017-09-01T05:34:23.376Z,13.87
2017-09-01T05:36:51.077Z,16.60
2017-09-01T05:39:18.730Z,16.60
2017-09-01T05:41:46.275Z,15.17
2017-09-01T05:44:13.989Z,15.10
2017-09-01T05:46:41.700Z,18.97
2017-09-01T05:49:09.226Z,18.20
2017-09-01T05:51:36.824Z,17.40
2017-09-01T05:54:04.632Z,18.77
2017-09-01T05:56:32.159Z,17.87
2017-09-01T05:58:59.683Z,20.10
2017-09-01T06:01:27.234Z,17.30
2017-09-01T06:03:54.748Z,17.80
2017-09-01T06:06:22.299Z,17.10
2017-09-01T06:08:50.110Z,19.67
2017-09-01T06:11:17.764Z,17.47
2017-09-01T06:13:45.270Z,20.50
2017-09-01T06:16:13.076Z,17.93
2017-09-01T06:18:40.661Z,21.83
2017-09-01T06:21:08.189Z,18.70
2017-09-01T06:23:35.752Z,18.43
2017-09-01T06:26:03.263Z,19.17
2017-09-01T06:28:30.767Z,19.67
2017-09-01T06:30:58.314Z,17.87
2017-09-01T06:33:25.831Z,18.33
2017-09-01T06:35:53.485Z,20.60
2017-09-01T06:38:21.241Z,18.67
2017-09-01T06:40:48.843Z,16.93
2017-09-01T06:43:16.375Z,18.73
2017-09-01T06:45:44.280Z,17.67
2017-09-01T06:48:11.779Z,16.33
2017-09-01T06:50:39.291Z,16.77
2017-09-01T06:53:07.172Z,16.10
2017-09-01T06:55:34.682Z,18.07
2017-09-01T06:58:02.203Z,17.47
2017-09-01T07:00:29.961Z,20.20
2017-09-01T07:02:57.603Z,20.53
2017-09-01T07:05:25.126Z,20.90
2017-09-01T07:07:53.023Z,21.70
2017-09-01T07:10:20.551Z,19.80
2017-09-01T07:12:48.154Z,21.43
2017-09-01T07:15:15.857Z,21.90
2017-09-01T07:17:43.398Z,21.97
2017-09-01T07:20:10.907Z,22.13
2017-09-01T07:22:38.727Z,22.43
2017-09-01T07:25:06.231Z,23.73
2017-09-01T07:27:33.745Z,27.10
2017-09-01T07:30:01.303Z,26.73
2017-09-01T07:32:28.807Z,26.10
2017-09-01T07:34:56.311Z,22.83
2017-09-01T07:37:23.879Z,23.50
2017-09-01T07:39:51.439Z,24.93
2017-09-01T07:42:18.947Z,21.43
2017-09-01T07:44:46.658Z,23.33
2017-09-01T07:47:14.161Z,24.10
2017-09-01T07:49:41.666Z,24.70
2017-09-01T07:52:09.224Z,26.73
2017-09-01T07:54:36.734Z,22.60
2017-09-01T07:57:04.245Z,22.87
2017-09-01T07:59:31.803Z,25.90
2017-09-01T08:01:59.306Z,24.50
2017-09-01T08:04:26.813Z,26.60
2017-09-01T08:06:54.383Z,24.67
2017-09-01T08:09:21.900Z,21.03
2017-09-01T08:11:50.177Z,22.07
2017-09-01T08:14:17.727Z,22.17
2017-09-01T08:16:45.242Z,25.70
2017-09-01T08:19:12.751Z,18.83
2017-09-01T08:21:40.301Z,21.47
2017-09-01T08:24:07.819Z,21.13
2017-09-01T08:26:35.326Z,20.23
2017-09-01T08:29:02.893Z,21.67
2017-09-01T08:31:30.406Z,19.97
2017-09-01T08:33:57.916Z,19.57
2017-09-01T08:36:25.911Z,22.67
2017-09-01T08:38:53.423Z,20.10
2017-09-01T08:41:20.934Z,20.90
2017-09-01T08:43:48.851Z,23.43
2017-09-01T08:46:16.362Z,22.03
2017-09-01T08:48:43.876Z,22.57
2017-09-01T08:51:11.533Z,22.80
2017-09-01T08:53:39.051Z,21.47
2017-09-01T08:56:06.563Z,23.90
2017-09-01T08:58:34.145Z,20.73
2017-09-01T09:01:01.662Z,18.77
2017-09-01T09:03:29.185Z,22.00
2017-09-01T09:05:56.879Z,20.83
2017-09-01T09:08:24.386Z,20.50
2017-09-01T09:10:51.900Z,14.83
2017-09-01T09:13:19.463Z,15.40
2017-09-01T09:15:46.980Z,17.57
2017-09-01T09:18:14.486Z,15.40
2017-09-01T09:20:42.056Z,13.77
2017-09-01T09:23:09.566Z,13.17
2017-09-01T09:25:37.083Z,13.20
2017-09-01T09:28:04.653Z,12.77
2017-09-01T09:30:32.151Z,12.10
2017-09-01T09:32:59.660Z,12.40
2017-09-01T09:35:27.464Z,13.30
2017-09-01T09:37:54.970Z,11.77
2017-09-01T09:40:22.479Z,11.13
2017-09-01T09:42:50.031Z,10.27
2017-09-01T09:45:17.561Z,10.93
2017-09-01T09:47:45.070Z,10.47
2017-09-01T09:50:13.013Z,10.33
2017-09-01T09:52:40.523Z,11.40
2017-09-01T09:55:08.022Z,12.13
2017-09-01T09:57:35.839Z,10.27
2017-09-01T10:00:03.347Z,10.80
2017-09-01T10:02:30.925Z,11.10
2017-09-01T10:04:58.471Z,11.60
2017-09-01T10:07:25.987Z,10.77
2017-09-01T10:09:53.487Z,8.67
2017-09-01T10:12:21.062Z,9.07
2017-09-01T10:14:48.555Z,7.63
2017-09-01T10:17:16.115Z,6.43
2017-09-01T10:19:43.966Z,6.30
2017-09-01T10:22:11.462Z,7.13
2017-09-01T10:24:38.964Z,6.57
2017-09-01T10:27:06.759Z,7.27
2017-09-01T10:29:34.254Z,8.53
2017-09-01T10:32:01.758Z,8.80
2017-09-01T10:34:29.303Z,9.87
2017-09-01T10:36:56.813Z,8.33
2017-09-01T10:39:24.355Z,8.93
2017-09-01T10:41:51.923Z,10.13
2017-09-01T10:44:19.441Z,9.60
2017-09-01T10:46:46.947Z,9.50
2017-09-01T11:02:44.627Z,11.70
2017-09-01T11:05:12.134Z,9.90
2017-09-01T11:07:39.637Z,12.23
2017-09-01T11:10:07.462Z,10.07
2017-09-01T11:12:34.982Z,10.80
2017-09-01T11:15:02.495Z,11.53
2017-09-01T11:17:30.067Z,11.13
2017-09-01T11:20:12.451Z,10.83
2017-09-01T11:22:46.347Z,10.47
2017-09-01T11:25:13.851Z,8.60
2017-09-01T11:27:41.354Z,9.77
2017-09-01T11:30:09.156Z,10.03
2017-09-01T11:32:36.654Z,9.57
2017-09-01T11:35:04.163Z,10.27
2017-09-01T11:37:31.734Z,10.77
2017-09-01T11:39:59.234Z,10.37
2017-09-01T11:42:26.749Z,9.30
2017-09-01T11:44:54.306Z,8.73
2017-09-01T11:47:21.814Z,9.90
2017-09-01T11:49:49.327Z,10.33
2017-09-01T11:52:17.135Z,9.80
2017-09-01T11:54:44.675Z,9.47
2017-09-01T11:57:12.235Z,9.50
2017-09-01T11:59:40.558Z,10.37
2017-09-01T12:02:08.063Z,11.77
2017-09-01T12:04:35.570Z,10.73
2017-09-01T12:07:03.124Z,10.20
2017-09-01T12:09:30.623Z,10.53
2017-09-01T12:11:58.119Z,9.90
2017-09-01T12:14:25.682Z,10.67
2017-09-01T12:16:53.180Z,10.53
2017-09-01T12:19:20.690Z,10.60
2017-09-01T12:21:48.240Z,10.43
2017-09-01T12:24:15.742Z,9.43
2017-09-01T12:26:43.247Z,8.97
2017-09-01T12:29:10.804Z,9.60
2017-09-01T12:31:38.305Z,9.40
2017-09-01T12:34:05.802Z,8.77
2017-09-01T12:36:33.358Z,8.07
2017-09-01T12:39:00.855Z,7.97
2017-09-01T12:41:28.349Z,7.90
2017-09-01T12:43:55.915Z,8.40
2017-09-01T12:46:23.427Z,8.43
2017-09-01T12:48:50.928Z,7.80
2017-09-01T12:51:18.484Z,7.43
2017-09-01T12:53:45.994Z,8.20
2017-09-01T12:56:13.495Z,9.77
2017-09-01T12:58:41.039Z,8.57
2017-09-01T13:01:08.552Z,8.93
2017-09-01T13:03:36.058Z,6.93
2017-09-01T13:06:03.922Z,8.17
2017-09-01T13:08:31.428Z,7.00
2017-09-01T13:10:58.939Z,6.37
2017-09-01T13:13:26.461Z,7.00
2017-09-01T13:15:53.965Z,7.93
2017-09-01T13:18:21.468Z,7.60
2017-09-01T13:20:49.716Z,7.20
2017-09-01T13:23:17.215Z,6.13
2017-09-01T13:25:44.712Z,6.50
2017-09-01T13:28:12.539Z,7.13
2017-09-01T13:30:40.043Z,7.17
2017-09-01T13:33:07.590Z,7.57
2017-09-01T13:35:35.134Z,6.87
2017-09-01T13:38:02.634Z,7.00
2017-09-01T13:40:30.138Z,6.43
2017-09-01T13:42:58.035Z,6.60
2017-09-01T13:45:25.534Z,7.87
2017-09-01T13:47:53.031Z,7.03
2017-09-01T13:50:20.818Z,7.30
2017-09-01T13:52:48.330Z,7.40
2017-09-01T13:55:15.830Z,8.30
2017-09-01T13:57:43.391Z,7.57
2017-09-01T14:00:11.650Z,8.20
2017-09-01T14:02:39.143Z,7.13
2017-09-01T14:05:06.687Z,7.47
2017-09-01T14:07:34.194Z,6.30
2017-09-01T14:10:01.695Z,7.47
2017-09-01T14:12:29.258Z,7.70
2017-09-01T14:14:56.760Z,6.97
2017-09-01T14:17:24.277Z,6.80
2017-09-01T14:19:51.914Z,7.63
2017-09-01T14:22:19.415Z,7.47
2017-09-01T14:24:46.919Z,8.47
2017-09-01T14:27:14.483Z,7.97
2017-09-01T14:29:41.991Z,7.40
2017-09-01T14:32:09.487Z,8.00
2017-09-01T14:34:37.046Z,7.10
2017-09-01T14:37:04.546Z,8.10
2017-09-01T14:39:32.050Z,8.57
2017-09-01T14:41:59.614Z,8.13
2017-09-01T14:44:27.115Z,9.50
2017-09-01T14:46:54.626Z,10.00
2017-09-01T14:49:22.199Z,9.80
2017-09-01T14:51:49.709Z,8.30
2017-09-01T14:54:17.207Z,8.90
2017-09-01T14:56:44.752Z,9.43
2017-09-01T14:59:12.264Z,10.03
2017-09-01T15:01:39.772Z,10.80
2017-09-01T15:04:07.574Z,9.43
2017-09-01T15:06:35.075Z,9.20
2017-09-01T15:09:02.578Z,9.60
2017-09-01T15:11:30.138Z,8.93
2017-09-01T15:13:57.651Z,10.00
2017-09-01T15:16:25.161Z,9.70
2017-09-01T15:18:52.707Z,8.90
2017-09-01T15:21:20.214Z,10.53
2017-09-01T15:23:47.755Z,8.83
2017-09-01T15:26:15.326Z,8.00
2017-09-01T15:28:42.822Z,7.50
2017-09-01T15:31:10.319Z,9.70
2017-09-01T15:33:37.862Z,8.60
2017-09-01T15:36:05.367Z,7.97
2017-09-01T15:38:32.863Z,8.60
2017-09-01T15:41:00.415Z,8.57
2017-09-01T15:43:27.927Z,8.60
2017-09-01T15:45:55.533Z,7.87
2017-09-01T15:48:23.087Z,7.23
2017-09-01T15:50:50.592Z,9.07
2017-09-01T15:53:18.102Z,9.90
2017-09-01T15:55:45.903Z,9.20
2017-09-01T15:58:13.420Z,10.50
2017-09-01T16:00:40.951Z,11.10
2017-09-01T16:03:08.755Z,9.50
2017-09-01T16:05:36.277Z,11.97
2017-09-01T16:08:03.802Z,10.07
2017-09-01T16:10:31.413Z,11.57
2017-09-01T16:12:58.959Z,12.73
2017-09-01T16:15:26.475Z,12.63
2017-09-01T16:17:54.266Z,11.03
2017-09-01T16:20:21.781Z,11.33
2017-09-01T16:22:49.291Z,12.70
2017-09-01T16:25:17.068Z,11.30
2017-09-01T16:27:44.574Z,12.60
2017-09-01T16:30:12.082Z,13.07
2017-09-01T16:32:39.631Z,13.00
2017-09-01T16:35:07.130Z,12.37
2017-09-01T16:37:34.633Z,14.40
2017-09-01T16:40:02.528Z,13.10
2017-09-01T16:42:30.031Z,13.23
2017-09-01T16:44:57.536Z,12.57
2017-09-01T16:47:25.087Z,10.50
2017-09-01T16:49:52.606Z,10.60
2017-09-01T16:52:20.115Z,9.47
2017-09-01T16:54:48.013Z,7.80
2017-09-01T16:57:15.523Z,8.30
2017-09-01T16:59:43.031Z,8.50
2017-09-01T17:02:10.936Z,7.07
2017-09-01T17:04:38.440Z,7.47
2017-09-01T17:07:05.955Z,8.83
2017-09-01T17:09:33.516Z,6.20
2017-09-01T17:12:01.050Z,7.53
2017-09-01T17:14:28.567Z,7.40
2017-09-01T17:16:56.111Z,7.43
2017-09-01T17:19:23.614Z,7.90
2017-09-01T17:21:51.124Z,8.97
2017-09-01T17:24:18.692Z,9.10
2017-09-01T17:26:46.292Z,9.33
2017-09-01T17:29:13.938Z,9.73
2017-09-01T17:31:41.552Z,9.90
2017-09-01T17:34:09.059Z,9.80
2017-09-01T17:36:36.566Z,10.17
2017-09-01T17:39:04.354Z,11.07
2017-09-01T17:41:31.858Z,11.10
2017-09-01T17:43:59.365Z,11.47
2017-09-01T17:46:26.928Z,12.57
2017-09-01T17:48:54.434Z,12.90
2017-09-01T17:51:21.948Z,10.80
2017-09-01T17:53:49.518Z,16.20
2017-09-01T17:56:17.034Z,13.87
2017-09-01T17:58:44.535Z,15.03
2017-09-01T18:01:12.111Z,12.83
2017-09-01T18:03:39.619Z,13.00
2017-09-01T18:06:07.132Z,13.00
2017-09-01T18:08:34.690Z,15.43
2017-09-01T18:11:02.194Z,15.87
2017-09-01T18:13:29.720Z,15.53
2017-09-01T18:15:57.287Z,14.50
2017-09-01T18:18:24.783Z,15.47
2017-09-01T18:20:52.284Z,14.53
2017-09-01T18:23:19.854Z,14.80
2017-09-01T18:25:47.363Z,15.50
2017-09-01T18:28:14.890Z,13.47
2017-09-01T18:30:42.984Z,14.50
2017-09-01T18:33:10.504Z,17.10
2017-09-01T18:35:38.003Z,15.23
2017-09-01T18:38:05.835Z,14.97
2017-09-01T18:40:33.340Z,17.47
2017-09-01T18:43:00.843Z,16.93
2017-09-01T18:45:28.400Z,16.80
2017-09-01T18:47:55.903Z,16.33
2017-09-01T18:50:23.407Z,14.43
2017-09-01T18:52:51.311Z,16.73
2017-09-01T18:55:18.826Z,19.53
2017-09-01T18:57:46.341Z,16.30
2017-09-01T19:00:14.244Z,16.33
2017-09-01T19:02:41.756Z,17.43
2017-09-01T19:05:09.263Z,17.90
2017-09-01T19:07:36.849Z,18.67
2017-09-01T19:10:04.361Z,17.40
2017-09-01T19:12:31.867Z,15.87
2017-09-01T19:14:59.404Z,16.83
2017-09-01T19:17:26.923Z,16.40
2017-09-01T19:19:54.431Z,15.27
2017-09-01T19:22:22.105Z,15.27
2017-09-01T19:24:49.606Z,14.33
2017-09-01T19:27:17.115Z,16.07
2017-09-01T19:29:45.226Z,16.20
2017-09-01T19:32:12.738Z,18.80
2017-09-01T19:34:40.242Z,18.53
2017-09-01T19:37:08.067Z,17.77
2017-09-01T19:39:35.576Z,20.07
2017-09-01T19:42:03.096Z,20.27
2017-09-01T19:44:30.988Z,17.37
2017-09-01T19:46:58.490Z,16.73
2017-09-01T19:49:25.998Z,19.40
2017-09-01T19:51:53.557Z,19.23
2017-09-01T19:54:21.079Z,17.93
2017-09-01T19:56:48.593Z,17.93
2017-09-01T19:59:16.522Z,20.50
2017-09-01T20:01:44.031Z,21.50
2017-09-01T20:04:11.539Z,22.23
2017-09-01T20:06:39.082Z,18.33
2017-09-01T20:09:06.870Z,19.00
2017-09-01T20:11:34.433Z,23.40
2017-09-01T20:14:02.004Z,21.20
2017-09-01T20:16:29.503Z,22.80
2017-09-01T20:18:57.003Z,24.00
2017-09-01T20:21:24.569Z,24.73
2017-09-01T20:23:52.063Z,26.63
2017-09-01T20:26:19.559Z,24.30
2017-09-01T20:28:47.114Z,28.07
2017-09-01T20:31:15.180Z,30.90
2017-09-01T20:33:42.693Z,27.87
2017-09-01T20:36:10.248Z,31.23
2017-09-01T20:38:37.766Z,25.73
2017-09-01T20:41:05.268Z,25.50
2017-09-01T20:43:32.819Z,27.07
2017-09-01T20:46:00.327Z,26.77
2017-09-01T20:48:27.836Z,30.23
2017-09-01T20:50:55.409Z,29.00
2017-09-01T20:53:22.932Z,31.60
2017-09-01T20:55:50.436Z,32.80
2017-09-01T20:58:18.375Z,31.60
2017-09-01T21:00:45.890Z,31.03
2017-09-01T21:03:13.395Z,33.13
2017-09-01T21:05:40.943Z,33.20
2017-09-01T21:08:08.443Z,31.07
2017-09-01T21:10:35.946Z,31.53
2017-09-01T21:13:03.516Z,34.53
2017-09-01T21:15:31.025Z,34.67
2017-09-01T21:17:58.529Z,35.20
2017-09-01T21:20:26.071Z,33.70
2017-09-01T21:22:53.570Z,37.60
2017-09-01T21:25:21.080Z,33.10
2017-09-01T21:27:48.631Z,32.17
2017-09-01T21:30:16.134Z,31.40
2017-09-01T21:32:43.638Z,33.07
2017-09-01T21:35:11.439Z,38.57
2017-09-01T21:37:38.949Z,37.90
2017-09-01T21:40:06.464Z,36.30
2017-09-01T21:42:34.021Z,35.03
2017-09-01T21:45:01.538Z,34.90
2017-09-01T21:47:29.099Z,37.87
2017-09-01T21:49:56.926Z,41.47
2017-09-01T21:52:24.543Z,38.93
2017-09-01T21:54:52.201Z,37.73
2017-09-01T21:57:19.898Z,32.97
2017-09-01T21:59:47.538Z,31.03
2017-09-01T22:02:15.569Z,26.27
2017-09-01T22:04:43.264Z,28.97
2017-09-01T22:07:10.802Z,32.60
2017-09-01T22:09:38.328Z,30.17
2017-09-01T22:12:05.921Z,29.07
2017-09-01T22:14:33.612Z,31.97
2017-09-01T22:17:01.304Z,31.90
2017-09-01T22:19:29.043Z,34.20
2017-09-01T22:21:56.777Z,37.50
2017-09-01T22:24:24.301Z,39.17
2017-09-01T22:26:51.864Z,42.70
2017-09-01T22:29:19.371Z,40.90
2017-09-01T22:31:46.887Z,47.97
2017-09-01T22:34:14.780Z,44.10
2017-09-01T22:36:42.298Z,38.80
2017-09-01T22:39:09.914Z,30.87
2017-09-01T22:41:37.625Z,28.77
2017-09-01T22:44:05.202Z,27.53
2017-09-01T22:46:32.727Z,30.73
2017-09-01T22:49:00.684Z,28.60
2017-09-01T22:51:28.283Z,34.57
2017-09-01T22:53:55.940Z,30.43
2017-09-01T22:56:23.523Z,30.70
2017-09-01T22:58:51.042Z,26.73
2017-09-01T23:01:18.553Z,24.53
2017-09-01T23:03:46.246Z,26.70
2017-09-01T23:06:13.946Z,27.17
2017-09-01T23:08:41.485Z,22.07
2017-09-01T23:11:09.448Z,28.30
2017-09-01T23:13:36.982Z,27.93
2017-09-01T23:16:04.656Z,27.97
2017-09-01T23:18:32.328Z,27.80
2017-09-01T23:20:59.847Z,31.03
2017-09-01T23:23:27.355Z,32.23
2017-09-01T23:25:54.891Z,30.80
2017-09-01T23:28:22.532Z,28.23
2017-09-01T23:30:50.068Z,28.07
2017-09-01T23:33:18.070Z,31.30
2017-09-01T23:35:45.690Z,31.07
2017-09-01T23:38:13.325Z,30.17
2017-09-01T23:40:41.028Z,27.57
2017-09-01T23:43:08.616Z,25.37
2017-09-01T23:45:36.135Z,23.33
2017-09-01T23:48:03.987Z,24.20
2017-09-01T23:50:31.526Z,21.87
2017-09-01T23:52:59.189Z,24.03
2017-09-01T23:55:26.754Z,21.10
2017-09-01T23:57:54.262Z,23.70
